KLNS

Lancaster Airport

Lancaster, Pennsylvania, USA
METAR KLNS 160953Z AUTO 00000KT 3SM BR FEW055 M09/M10 A3001 RMK AO2 SLP168 T10941100
Observed Flight Rules
Dec-16 @ 09:53 UTC (59 minutes ago) Marginal Visual Flight Rules
Wind Visibility Clouds Conditions
Calm 3 miles
  • Few at 5,500' AGL
  • Mist
Temperatures Readings
Current -9°C / 16°F
Dewpoint -10°C / 14°F
Humidity 93%
Altimeter 30.01" Hg
Pressure 1016.8 hPa
Elevation 125
METAR KLNS 160953Z AUTO 00000KT 3SM BR FEW055 M09/M10 A3001 RMK AO2 SLP168 T10941100
Observed Flight Rules
Dec-16 @ 09:53 UTC
(59 minutes ago)
MVFR
Wind Visibility
Calm 3 miles
Clouds
  • Few at 5,500' AGL
Conditions
  • Mist
Temperature Dewpoint
-9°C / 16°F -10°C / 14°F
Humidity Altimeter Pressure
93% 30.01" Hg 1016.8 hPa